sensor_id;sensor_type;location;lat;lon;timestamp;P1;durP1;ratioP1;P2;durP2;ratioP2
32639;SDS011;19049;52.524;11.468;2022-07-24T00:00:23;0.50;;;0.50;;
32639;SDS011;19049;52.524;11.468;2022-07-24T00:02:49;0.50;;;0.50;;
32639;SDS011;19049;52.524;11.468;2022-07-24T00:05:14;0.40;;;0.40;;
32639;SDS011;19049;52.524;11.468;2022-07-24T00:07:40;0.40;;;0.40;;
32639;SDS011;19049;52.524;11.468;2022-07-24T00:10:06;0.83;;;0.70;;
32639;SDS011;19049;52.524;11.468;2022-07-24T00:12:32;0.97;;;0.47;;
32639;SDS011;19049;52.524;11.468;2022-07-24T00:14:58;0.40;;;0.40;;
32639;SDS011;19049;52.524;11.468;2022-07-24T00:17:24;1.27;;;0.60;;
32639;SDS011;19049;52.524;11.468;2022-07-24T00:19:49;0.70;;;0.50;;
32639;SDS011;19049;52.524;11.468;2022-07-24T00:22:15;0.60;;;0.60;;
32639;SDS011;19049;52.524;11.468;2022-07-24T00:24:43;0.50;;;0.50;;
32639;SDS011;19049;52.524;11.468;2022-07-24T00:27:09;0.77;;;0.50;;
32639;SDS011;19049;52.524;11.468;2022-07-24T00:29:35;0.60;;;0.47;;
32639;SDS011;19049;52.524;11.468;2022-07-24T00:32:00;0.60;;;0.60;;
32639;SDS011;19049;52.524;11.468;2022-07-24T00:34:26;0.33;;;0.33;;
32639;SDS011;19049;52.524;11.468;2022-07-24T00:36:51;1.30;;;0.70;;
32639;SDS011;19049;52.524;11.468;2022-07-24T00:39:17;1.07;;;0.50;;
32639;SDS011;19049;52.524;11.468;2022-07-24T00:41:52;0.70;;;0.50;;
32639;SDS011;19049;52.524;11.468;2022-07-24T00:44:21;0.53;;;0.53;;
32639;SDS011;19049;52.524;11.468;2022-07-24T00:46:49;0.50;;;0.47;;
32639;SDS011;19049;52.524;11.468;2022-07-24T00:49:16;0.50;;;0.50;;
32639;SDS011;19049;52.524;11.468;2022-07-24T00:51:44;0.57;;;0.57;;
32639;SDS011;19049;52.524;11.468;2022-07-24T00:54:11;0.60;;;0.60;;
32639;SDS011;19049;52.524;11.468;2022-07-24T00:56:38;0.53;;;0.53;;
32639;SDS011;19049;52.524;11.468;2022-07-24T00:59:05;0.50;;;0.50;;
32639;SDS011;19049;52.524;11.468;2022-07-24T01:01:31;0.57;;;0.50;;
32639;SDS011;19049;52.524;11.468;2022-07-24T01:03:57;0.47;;;0.47;;
32639;SDS011;19049;52.524;11.468;2022-07-24T01:06:23;0.60;;;0.60;;
32639;SDS011;19049;52.524;11.468;2022-07-24T01:08:49;0.50;;;0.50;;
32639;SDS011;19049;52.524;11.468;2022-07-24T01:11:18;0.67;;;0.67;;
32639;SDS011;19049;52.524;11.468;2022-07-24T01:13:45;1.27;;;0.60;;
32639;SDS011;19049;52.524;11.468;2022-07-24T01:16:20;0.60;;;0.60;;
32639;SDS011;19049;52.524;11.468;2022-07-24T01:18:45;0.50;;;0.50;;
32639;SDS011;19049;52.524;11.468;2022-07-24T01:21:11;2.90;;;0.60;;
32639;SDS011;19049;52.524;11.468;2022-07-24T01:23:37;0.57;;;0.57;;
32639;SDS011;19049;52.524;11.468;2022-07-24T01:26:06;0.50;;;0.50;;
32639;SDS011;19049;52.524;11.468;2022-07-24T01:28:32;0.70;;;0.70;;
32639;SDS011;19049;52.524;11.468;2022-07-24T01:31:01;0.50;;;0.50;;
32639;SDS011;19049;52.524;11.468;2022-07-24T01:33:26;0.50;;;0.50;;
32639;SDS011;19049;52.524;11.468;2022-07-24T01:35:53;0.80;;;0.60;;
32639;SDS011;19049;52.524;11.468;2022-07-24T01:38:22;1.37;;;0.60;;
32639;SDS011;19049;52.524;11.468;2022-07-24T01:40:50;0.50;;;0.50;;
32639;SDS011;19049;52.524;11.468;2022-07-24T01:43:16;1.43;;;0.70;;
32639;SDS011;19049;52.524;11.468;2022-07-24T01:45:42;1.07;;;0.80;;
32639;SDS011;19049;52.524;11.468;2022-07-24T01:48:07;0.80;;;0.60;;
32639;SDS011;19049;52.524;11.468;2022-07-24T01:50:33;0.70;;;0.70;;
32639;SDS011;19049;52.524;11.468;2022-07-24T01:53:01;0.40;;;0.40;;
32639;SDS011;19049;52.524;11.468;2022-07-24T01:55:27;2.20;;;0.50;;
32639;SDS011;19049;52.524;11.468;2022-07-24T01:57:53;0.80;;;0.60;;
32639;SDS011;19049;52.524;11.468;2022-07-24T02:00:19;0.60;;;0.60;;
32639;SDS011;19049;52.524;11.468;2022-07-24T02:02:44;0.50;;;0.50;;
32639;SDS011;19049;52.524;11.468;2022-07-24T02:05:11;0.40;;;0.40;;
32639;SDS011;19049;52.524;11.468;2022-07-24T02:07:38;0.60;;;0.60;;
32639;SDS011;19049;52.524;11.468;2022-07-24T02:10:05;1.80;;;0.60;;
32639;SDS011;19049;52.524;11.468;2022-07-24T02:12:31;0.50;;;0.50;;
32639;SDS011;19049;52.524;11.468;2022-07-24T02:14:56;0.70;;;0.50;;
32639;SDS011;19049;52.524;11.468;2022-07-24T02:17:22;2.00;;;0.67;;
32639;SDS011;19049;52.524;11.468;2022-07-24T02:19:47;0.93;;;0.87;;
32639;SDS011;19049;52.524;11.468;2022-07-24T02:22:13;0.73;;;0.60;;
32639;SDS011;19049;52.524;11.468;2022-07-24T02:24:39;0.67;;;0.67;;
32639;SDS011;19049;52.524;11.468;2022-07-24T02:27:04;0.90;;;0.60;;
32639;SDS011;19049;52.524;11.468;2022-07-24T02:29:30;0.70;;;0.60;;
32639;SDS011;19049;52.524;11.468;2022-07-24T02:31:56;0.60;;;0.50;;
32639;SDS011;19049;52.524;11.468;2022-07-24T02:34:21;0.70;;;0.70;;
32639;SDS011;19049;52.524;11.468;2022-07-24T02:36:47;0.60;;;0.60;;
32639;SDS011;19049;52.524;11.468;2022-07-24T02:39:12;1.97;;;0.70;;
32639;SDS011;19049;52.524;11.468;2022-07-24T02:41:38;0.90;;;0.67;;
32639;SDS011;19049;52.524;11.468;2022-07-24T02:44:04;0.93;;;0.70;;
32639;SDS011;19049;52.524;11.468;2022-07-24T02:46:29;0.87;;;0.70;;
32639;SDS011;19049;52.524;11.468;2022-07-24T02:48:55;0.67;;;0.60;;
32639;SDS011;19049;52.524;11.468;2022-07-24T02:51:20;0.60;;;0.60;;
32639;SDS011;19049;52.524;11.468;2022-07-24T02:53:49;0.60;;;0.60;;
32639;SDS011;19049;52.524;11.468;2022-07-24T02:56:14;0.50;;;0.50;;
32639;SDS011;19049;52.524;11.468;2022-07-24T02:58:40;1.03;;;0.70;;
32639;SDS011;19049;52.524;11.468;2022-07-24T03:01:06;1.53;;;0.60;;
32639;SDS011;19049;52.524;11.468;2022-07-24T03:03:31;0.70;;;0.70;;
32639;SDS011;19049;52.524;11.468;2022-07-24T03:05:57;0.70;;;0.70;;
32639;SDS011;19049;52.524;11.468;2022-07-24T03:08:22;0.60;;;0.40;;
32639;SDS011;19049;52.524;11.468;2022-07-24T03:10:48;0.70;;;0.70;;
32639;SDS011;19049;52.524;11.468;2022-07-24T03:13:16;0.60;;;0.60;;
32639;SDS011;19049;52.524;11.468;2022-07-24T03:15:42;0.67;;;0.67;;
32639;SDS011;19049;52.524;11.468;2022-07-24T03:18:07;0.50;;;0.50;;
32639;SDS011;19049;52.524;11.468;2022-07-24T03:20:33;0.73;;;0.73;;
32639;SDS011;19049;52.524;11.468;2022-07-24T03:22:59;0.80;;;0.80;;
32639;SDS011;19049;52.524;11.468;2022-07-24T03:25:25;0.70;;;0.63;;
32639;SDS011;19049;52.524;11.468;2022-07-24T03:27:50;0.77;;;0.73;;
32639;SDS011;19049;52.524;11.468;2022-07-24T03:30:17;0.77;;;0.77;;
32639;SDS011;19049;52.524;11.468;2022-07-24T03:32:43;0.63;;;0.63;;
32639;SDS011;19049;52.524;11.468;2022-07-24T03:35:09;0.60;;;0.60;;
32639;SDS011;19049;52.524;11.468;2022-07-24T03:37:35;1.43;;;0.60;;
32639;SDS011;19049;52.524;11.468;2022-07-24T03:40:01;1.00;;;0.47;;
32639;SDS011;19049;52.524;11.468;2022-07-24T03:42:28;1.47;;;0.90;;
32639;SDS011;19049;52.524;11.468;2022-07-24T03:44:54;1.17;;;0.60;;
32639;SDS011;19049;52.524;11.468;2022-07-24T03:47:19;1.27;;;0.70;;
32639;SDS011;19049;52.524;11.468;2022-07-24T03:49:45;0.80;;;0.70;;
32639;SDS011;19049;52.524;11.468;2022-07-24T03:52:11;0.63;;;0.63;;
32639;SDS011;19049;52.524;11.468;2022-07-24T03:54:36;1.00;;;0.70;;
32639;SDS011;19049;52.524;11.468;2022-07-24T03:57:02;0.60;;;0.60;;
32639;SDS011;19049;52.524;11.468;2022-07-24T03:59:31;0.80;;;0.70;;
32639;SDS011;19049;52.524;11.468;2022-07-24T04:01:57;0.60;;;0.60;;
32639;SDS011;19049;52.524;11.468;2022-07-24T04:04:22;1.43;;;0.60;;
32639;SDS011;19049;52.524;11.468;2022-07-24T04:06:48;0.70;;;0.63;;
32639;SDS011;19049;52.524;11.468;2022-07-24T04:09:13;1.17;;;0.67;;
32639;SDS011;19049;52.524;11.468;2022-07-24T04:11:39;0.60;;;0.50;;
32639;SDS011;19049;52.524;11.468;2022-07-24T04:14:05;0.60;;;0.50;;
32639;SDS011;19049;52.524;11.468;2022-07-24T04:16:31;0.70;;;0.70;;
32639;SDS011;19049;52.524;11.468;2022-07-24T04:18:57;1.13;;;0.90;;
32639;SDS011;19049;52.524;11.468;2022-07-24T04:21:22;2.00;;;0.80;;
32639;SDS011;19049;52.524;11.468;2022-07-24T04:23:48;1.50;;;0.90;;
32639;SDS011;19049;52.524;11.468;2022-07-24T04:26:14;3.40;;;0.97;;
32639;SDS011;19049;52.524;11.468;2022-07-24T04:28:39;0.87;;;0.87;;
32639;SDS011;19049;52.524;11.468;2022-07-24T04:31:07;1.07;;;0.77;;
32639;SDS011;19049;52.524;11.468;2022-07-24T04:33:32;1.27;;;1.10;;
32639;SDS011;19049;52.524;11.468;2022-07-24T04:35:58;0.90;;;0.77;;
32639;SDS011;19049;52.524;11.468;2022-07-24T04:38:24;0.77;;;0.77;;
32639;SDS011;19049;52.524;11.468;2022-07-24T04:40:49;1.63;;;0.90;;
32639;SDS011;19049;52.524;11.468;2022-07-24T04:43:15;1.47;;;0.80;;
32639;SDS011;19049;52.524;11.468;2022-07-24T04:45:41;1.53;;;1.10;;
32639;SDS011;19049;52.524;11.468;2022-07-24T04:48:06;0.80;;;0.80;;
32639;SDS011;19049;52.524;11.468;2022-07-24T04:50:37;0.77;;;0.77;;
32639;SDS011;19049;52.524;11.468;2022-07-24T04:53:02;0.90;;;0.90;;
32639;SDS011;19049;52.524;11.468;2022-07-24T04:55:28;1.30;;;0.80;;
32639;SDS011;19049;52.524;11.468;2022-07-24T04:57:53;1.10;;;0.80;;
32639;SDS011;19049;52.524;11.468;2022-07-24T05:00:19;0.90;;;0.90;;
32639;SDS011;19049;52.524;11.468;2022-07-24T05:02:45;1.23;;;0.90;;
32639;SDS011;19049;52.524;11.468;2022-07-24T05:05:10;2.13;;;0.90;;
32639;SDS011;19049;52.524;11.468;2022-07-24T05:07:44;1.77;;;0.87;;
32639;SDS011;19049;52.524;11.468;2022-07-24T05:10:10;1.00;;;0.90;;
32639;SDS011;19049;52.524;11.468;2022-07-24T05:12:35;0.90;;;0.90;;
32639;SDS011;19049;52.524;11.468;2022-07-24T05:15:02;1.20;;;1.10;;
32639;SDS011;19049;52.524;11.468;2022-07-24T05:17:28;1.00;;;0.90;;
32639;SDS011;19049;52.524;11.468;2022-07-24T05:19:54;0.83;;;0.80;;
32639;SDS011;19049;52.524;11.468;2022-07-24T05:22:20;0.87;;;0.83;;
32639;SDS011;19049;52.524;11.468;2022-07-24T05:24:45;1.10;;;1.00;;
32639;SDS011;19049;52.524;11.468;2022-07-24T05:27:11;0.73;;;0.73;;
32639;SDS011;19049;52.524;11.468;2022-07-24T05:29:39;1.03;;;0.70;;
32639;SDS011;19049;52.524;11.468;2022-07-24T05:32:05;1.93;;;0.90;;
32639;SDS011;19049;52.524;11.468;2022-07-24T05:34:31;0.87;;;0.80;;
32639;SDS011;19049;52.524;11.468;2022-07-24T05:36:56;0.70;;;0.70;;
32639;SDS011;19049;52.524;11.468;2022-07-24T05:39:22;0.83;;;0.83;;
32639;SDS011;19049;52.524;11.468;2022-07-24T05:41:48;1.17;;;0.77;;
32639;SDS011;19049;52.524;11.468;2022-07-24T05:44:13;2.47;;;0.90;;
32639;SDS011;19049;52.524;11.468;2022-07-24T05:46:39;1.20;;;0.97;;
32639;SDS011;19049;52.524;11.468;2022-07-24T05:49:04;1.10;;;0.80;;
32639;SDS011;19049;52.524;11.468;2022-07-24T05:51:30;1.10;;;0.90;;
32639;SDS011;19049;52.524;11.468;2022-07-24T05:53:57;0.73;;;0.70;;
32639;SDS011;19049;52.524;11.468;2022-07-24T05:56:22;0.80;;;0.80;;
32639;SDS011;19049;52.524;11.468;2022-07-24T05:58:48;0.80;;;0.70;;
32639;SDS011;19049;52.524;11.468;2022-07-24T06:01:14;0.90;;;0.90;;
32639;SDS011;19049;52.524;11.468;2022-07-24T06:03:39;0.87;;;0.80;;
32639;SDS011;19049;52.524;11.468;2022-07-24T06:06:05;1.80;;;1.20;;
32639;SDS011;19049;52.524;11.468;2022-07-24T06:08:33;0.77;;;0.77;;
32639;SDS011;19049;52.524;11.468;2022-07-24T06:10:58;0.97;;;0.80;;
32639;SDS011;19049;52.524;11.468;2022-07-24T06:13:24;0.80;;;0.70;;
32639;SDS011;19049;52.524;11.468;2022-07-24T06:15:50;0.70;;;0.70;;
32639;SDS011;19049;52.524;11.468;2022-07-24T06:18:15;1.00;;;0.70;;
32639;SDS011;19049;52.524;11.468;2022-07-24T06:20:41;0.70;;;0.70;;
32639;SDS011;19049;52.524;11.468;2022-07-24T06:23:07;1.30;;;0.83;;
32639;SDS011;19049;52.524;11.468;2022-07-24T06:25:32;1.43;;;0.90;;
32639;SDS011;19049;52.524;11.468;2022-07-24T06:27:58;1.47;;;0.80;;
32639;SDS011;19049;52.524;11.468;2022-07-24T06:30:24;1.97;;;0.97;;
32639;SDS011;19049;52.524;11.468;2022-07-24T06:32:59;1.03;;;0.70;;
32639;SDS011;19049;52.524;11.468;2022-07-24T06:35:26;1.87;;;0.70;;
32639;SDS011;19049;52.524;11.468;2022-07-24T06:37:53;1.30;;;0.80;;
32639;SDS011;19049;52.524;11.468;2022-07-24T06:40:19;1.07;;;0.80;;
32639;SDS011;19049;52.524;11.468;2022-07-24T06:42:45;0.80;;;0.80;;
32639;SDS011;19049;52.524;11.468;2022-07-24T06:45:12;1.60;;;0.60;;
32639;SDS011;19049;52.524;11.468;2022-07-24T06:47:38;1.07;;;0.60;;
32639;SDS011;19049;52.524;11.468;2022-07-24T06:50:05;1.10;;;0.80;;
32639;SDS011;19049;52.524;11.468;2022-07-24T06:52:31;0.70;;;0.70;;
32639;SDS011;19049;52.524;11.468;2022-07-24T06:54:57;1.03;;;0.67;;
32639;SDS011;19049;52.524;11.468;2022-07-24T06:57:23;0.87;;;0.60;;
32639;SDS011;19049;52.524;11.468;2022-07-24T06:59:50;3.07;;;0.77;;
32639;SDS011;19049;52.524;11.468;2022-07-24T07:02:17;0.97;;;0.63;;
32639;SDS011;19049;52.524;11.468;2022-07-24T07:04:43;1.00;;;0.80;;
32639;SDS011;19049;52.524;11.468;2022-07-24T07:07:09;0.80;;;0.70;;
32639;SDS011;19049;52.524;11.468;2022-07-24T07:09:34;0.83;;;0.70;;
32639;SDS011;19049;52.524;11.468;2022-07-24T07:12:01;1.23;;;1.00;;
32639;SDS011;19049;52.524;11.468;2022-07-24T07:14:27;0.77;;;0.70;;
32639;SDS011;19049;52.524;11.468;2022-07-24T07:16:53;1.13;;;0.70;;
32639;SDS011;19049;52.524;11.468;2022-07-24T07:19:18;1.00;;;0.80;;
32639;SDS011;19049;52.524;11.468;2022-07-24T07:21:44;0.77;;;0.77;;
32639;SDS011;19049;52.524;11.468;2022-07-24T07:24:10;1.10;;;0.73;;
32639;SDS011;19049;52.524;11.468;2022-07-24T07:26:36;1.10;;;1.00;;
32639;SDS011;19049;52.524;11.468;2022-07-24T07:29:01;0.67;;;0.67;;
32639;SDS011;19049;52.524;11.468;2022-07-24T07:31:27;1.07;;;0.60;;
32639;SDS011;19049;52.524;11.468;2022-07-24T07:33:53;1.00;;;0.60;;
32639;SDS011;19049;52.524;11.468;2022-07-24T07:36:19;1.63;;;0.87;;
32639;SDS011;19049;52.524;11.468;2022-07-24T07:38:47;0.53;;;0.53;;
32639;SDS011;19049;52.524;11.468;2022-07-24T07:41:12;0.97;;;0.50;;
32639;SDS011;19049;52.524;11.468;2022-07-24T07:43:38;0.80;;;0.80;;
32639;SDS011;19049;52.524;11.468;2022-07-24T07:46:04;0.80;;;0.60;;
32639;SDS011;19049;52.524;11.468;2022-07-24T07:48:30;0.73;;;0.50;;
32639;SDS011;19049;52.524;11.468;2022-07-24T07:50:56;0.73;;;0.73;;
32639;SDS011;19049;52.524;11.468;2022-07-24T07:53:22;1.00;;;0.90;;
32639;SDS011;19049;52.524;11.468;2022-07-24T07:55:48;0.73;;;0.70;;
32639;SDS011;19049;52.524;11.468;2022-07-24T07:58:16;0.80;;;0.70;;
32639;SDS011;19049;52.524;11.468;2022-07-24T08:00:42;0.90;;;0.50;;
32639;SDS011;19049;52.524;11.468;2022-07-24T08:03:08;0.87;;;0.80;;
32639;SDS011;19049;52.524;11.468;2022-07-24T08:05:34;0.73;;;0.70;;
32639;SDS011;19049;52.524;11.468;2022-07-24T08:07:59;0.50;;;0.50;;
32639;SDS011;19049;52.524;11.468;2022-07-24T08:10:25;1.03;;;0.70;;
32639;SDS011;19049;52.524;11.468;2022-07-24T08:12:51;0.93;;;0.73;;
32639;SDS011;19049;52.524;11.468;2022-07-24T08:15:16;1.03;;;0.90;;
32639;SDS011;19049;52.524;11.468;2022-07-24T08:17:42;1.30;;;0.90;;
32639;SDS011;19049;52.524;11.468;2022-07-24T08:20:08;1.07;;;0.90;;
32639;SDS011;19049;52.524;11.468;2022-07-24T08:22:34;0.70;;;0.70;;
32639;SDS011;19049;52.524;11.468;2022-07-24T08:25:00;0.90;;;0.80;;
32639;SDS011;19049;52.524;11.468;2022-07-24T08:27:26;0.73;;;0.73;;
32639;SDS011;19049;52.524;11.468;2022-07-24T08:29:52;0.83;;;0.80;;
32639;SDS011;19049;52.524;11.468;2022-07-24T08:32:19;0.97;;;0.87;;
32639;SDS011;19049;52.524;11.468;2022-07-24T08:34:45;1.73;;;1.00;;
32639;SDS011;19049;52.524;11.468;2022-07-24T08:37:11;0.80;;;0.80;;
32639;SDS011;19049;52.524;11.468;2022-07-24T08:39:36;5.30;;;1.00;;
32639;SDS011;19049;52.524;11.468;2022-07-24T08:42:06;1.10;;;0.90;;
32639;SDS011;19049;52.524;11.468;2022-07-24T08:44:35;2.13;;;1.20;;
32639;SDS011;19049;52.524;11.468;2022-07-24T08:47:08;1.13;;;0.97;;
32639;SDS011;19049;52.524;11.468;2022-07-24T08:49:39;1.83;;;1.20;;
32639;SDS011;19049;52.524;11.468;2022-07-24T08:52:05;1.00;;;1.00;;
32639;SDS011;19049;52.524;11.468;2022-07-24T08:54:40;1.07;;;0.80;;
32639;SDS011;19049;52.524;11.468;2022-07-24T08:57:05;1.80;;;1.03;;
32639;SDS011;19049;52.524;11.468;2022-07-24T08:59:31;1.20;;;1.10;;
32639;SDS011;19049;52.524;11.468;2022-07-24T09:01:57;1.30;;;1.20;;
32639;SDS011;19049;52.524;11.468;2022-07-24T09:06:58;1.83;;;1.20;;
32639;SDS011;19049;52.524;11.468;2022-07-24T09:09:24;1.73;;;1.13;;
32639;SDS011;19049;52.524;11.468;2022-07-24T09:12:01;3.07;;;1.30;;
32639;SDS011;19049;52.524;11.468;2022-07-24T09:14:31;1.40;;;1.30;;
32639;SDS011;19049;52.524;11.468;2022-07-24T09:17:05;1.03;;;1.00;;
32639;SDS011;19049;52.524;11.468;2022-07-24T09:19:58;1.10;;;1.03;;
32639;SDS011;19049;52.524;11.468;2022-07-24T09:27:55;1.20;;;1.20;;
32639;SDS011;19049;52.524;11.468;2022-07-24T09:33:04;1.27;;;1.13;;
32639;SDS011;19049;52.524;11.468;2022-07-24T09:35:49;1.27;;;1.17;;
32639;SDS011;19049;52.524;11.468;2022-07-24T09:38:36;1.30;;;1.20;;
32639;SDS011;19049;52.524;11.468;2022-07-24T09:41:02;1.63;;;1.53;;
32639;SDS011;19049;52.524;11.468;2022-07-24T09:43:29;1.40;;;1.23;;
32639;SDS011;19049;52.524;11.468;2022-07-24T09:46:04;1.53;;;1.43;;
32639;SDS011;19049;52.524;11.468;2022-07-24T09:51:19;1.80;;;1.43;;
32639;SDS011;19049;52.524;11.468;2022-07-24T09:53:52;2.10;;;1.40;;
32639;SDS011;19049;52.524;11.468;2022-07-24T09:56:21;1.70;;;1.57;;
32639;SDS011;19049;52.524;11.468;2022-07-24T09:58:57;1.40;;;1.30;;
32639;SDS011;19049;52.524;11.468;2022-07-24T10:01:25;1.73;;;1.40;;
32639;SDS011;19049;52.524;11.468;2022-07-24T10:04:00;1.87;;;1.50;;
32639;SDS011;19049;52.524;11.468;2022-07-24T10:06:30;2.23;;;1.50;;
32639;SDS011;19049;52.524;11.468;2022-07-24T10:09:01;1.50;;;1.40;;
32639;SDS011;19049;52.524;11.468;2022-07-24T10:11:27;1.50;;;1.37;;
32639;SDS011;19049;52.524;11.468;2022-07-24T10:14:16;1.80;;;1.70;;
32639;SDS011;19049;52.524;11.468;2022-07-24T10:16:45;2.43;;;1.60;;
32639;SDS011;19049;52.524;11.468;2022-07-24T10:19:18;2.17;;;1.97;;
32639;SDS011;19049;52.524;11.468;2022-07-24T10:21:56;1.80;;;1.70;;
32639;SDS011;19049;52.524;11.468;2022-07-24T10:27:30;1.70;;;1.60;;
32639;SDS011;19049;52.524;11.468;2022-07-24T10:30:08;1.50;;;1.40;;
32639;SDS011;19049;52.524;11.468;2022-07-24T10:36:06;2.00;;;1.80;;
32639;SDS011;19049;52.524;11.468;2022-07-24T10:45:26;2.00;;;1.83;;
32639;SDS011;19049;52.524;11.468;2022-07-24T10:59:12;1.80;;;1.70;;
32639;SDS011;19049;52.524;11.468;2022-07-24T11:01:42;2.03;;;1.90;;
32639;SDS011;19049;52.524;11.468;2022-07-24T11:06:45;1.83;;;1.73;;
32639;SDS011;19049;52.524;11.468;2022-07-24T11:09:31;2.10;;;1.77;;
32639;SDS011;19049;52.524;11.468;2022-07-24T11:12:19;2.10;;;2.00;;
32639;SDS011;19049;52.524;11.468;2022-07-24T11:14:52;2.20;;;2.00;;
32639;SDS011;19049;52.524;11.468;2022-07-24T11:17:43;2.27;;;2.07;;
32639;SDS011;19049;52.524;11.468;2022-07-24T11:20:18;2.47;;;2.23;;
32639;SDS011;19049;52.524;11.468;2022-07-24T11:24:03;2.67;;;2.20;;
32639;SDS011;19049;52.524;11.468;2022-07-24T11:36:56;2.60;;;2.23;;
32639;SDS011;19049;52.524;11.468;2022-07-24T11:39:27;2.33;;;1.97;;
32639;SDS011;19049;52.524;11.468;2022-07-24T11:42:01;2.70;;;2.30;;
32639;SDS011;19049;52.524;11.468;2022-07-24T11:46:56;2.00;;;1.83;;
32639;SDS011;19049;52.524;11.468;2022-07-24T11:49:23;2.27;;;2.07;;
32639;SDS011;19049;52.524;11.468;2022-07-24T11:51:51;1.90;;;1.70;;
32639;SDS011;19049;52.524;11.468;2022-07-24T11:54:25;1.70;;;1.60;;
32639;SDS011;19049;52.524;11.468;2022-07-24T11:56:53;2.30;;;2.10;;
32639;SDS011;19049;52.524;11.468;2022-07-24T11:59:38;2.87;;;1.90;;
32639;SDS011;19049;52.524;11.468;2022-07-24T12:02:05;1.73;;;1.63;;
32639;SDS011;19049;52.524;11.468;2022-07-24T12:04:34;2.50;;;2.27;;
32639;SDS011;19049;52.524;11.468;2022-07-24T12:07:11;2.20;;;2.00;;
32639;SDS011;19049;52.524;11.468;2022-07-24T12:09:45;2.00;;;1.73;;
32639;SDS011;19049;52.524;11.468;2022-07-24T12:15:05;1.97;;;1.77;;
32639;SDS011;19049;52.524;11.468;2022-07-24T12:17:32;1.60;;;1.50;;
32639;SDS011;19049;52.524;11.468;2022-07-24T12:20:00;2.20;;;1.70;;
32639;SDS011;19049;52.524;11.468;2022-07-24T12:22:31;1.90;;;1.80;;
32639;SDS011;19049;52.524;11.468;2022-07-24T12:24:57;2.20;;;2.00;;
32639;SDS011;19049;52.524;11.468;2022-07-24T12:27:37;2.10;;;1.83;;
32639;SDS011;19049;52.524;11.468;2022-07-24T12:30:50;3.57;;;2.40;;
32639;SDS011;19049;52.524;11.468;2022-07-24T12:41:14;1.80;;;1.70;;
32639;SDS011;19049;52.524;11.468;2022-07-24T12:43:47;1.80;;;1.70;;
32639;SDS011;19049;52.524;11.468;2022-07-24T12:46:20;1.73;;;1.63;;
32639;SDS011;19049;52.524;11.468;2022-07-24T12:48:57;1.80;;;1.70;;
32639;SDS011;19049;52.524;11.468;2022-07-24T12:51:53;2.17;;;1.93;;
32639;SDS011;19049;52.524;11.468;2022-07-24T12:54:31;3.03;;;2.03;;
32639;SDS011;19049;52.524;11.468;2022-07-24T12:57:08;1.83;;;1.70;;
32639;SDS011;19049;52.524;11.468;2022-07-24T12:59:36;2.03;;;1.80;;
32639;SDS011;19049;52.524;11.468;2022-07-24T13:02:16;1.87;;;1.77;;
32639;SDS011;19049;52.524;11.468;2022-07-24T13:04:51;3.30;;;2.00;;
32639;SDS011;19049;52.524;11.468;2022-07-24T13:07:18;1.77;;;1.67;;
32639;SDS011;19049;52.524;11.468;2022-07-24T13:09:47;1.80;;;1.70;;
32639;SDS011;19049;52.524;11.468;2022-07-24T13:12:14;1.80;;;1.70;;
32639;SDS011;19049;52.524;11.468;2022-07-24T13:14:40;2.17;;;1.70;;
32639;SDS011;19049;52.524;11.468;2022-07-24T13:17:07;1.60;;;1.50;;
32639;SDS011;19049;52.524;11.468;2022-07-24T13:19:35;2.80;;;1.70;;
32639;SDS011;19049;52.524;11.468;2022-07-24T13:22:02;1.60;;;1.50;;
32639;SDS011;19049;52.524;11.468;2022-07-24T13:24:28;1.83;;;1.73;;
32639;SDS011;19049;52.524;11.468;2022-07-24T13:26:58;1.80;;;1.70;;
32639;SDS011;19049;52.524;11.468;2022-07-24T13:29:27;2.40;;;1.80;;
32639;SDS011;19049;52.524;11.468;2022-07-24T13:31:53;1.93;;;1.83;;
32639;SDS011;19049;52.524;11.468;2022-07-24T13:34:19;1.53;;;1.43;;
32639;SDS011;19049;52.524;11.468;2022-07-24T13:36:45;1.70;;;1.60;;
32639;SDS011;19049;52.524;11.468;2022-07-24T13:39:17;2.27;;;1.90;;
32639;SDS011;19049;52.524;11.468;2022-07-24T13:41:43;2.50;;;1.63;;
32639;SDS011;19049;52.524;11.468;2022-07-24T13:44:08;1.90;;;1.80;;
32639;SDS011;19049;52.524;11.468;2022-07-24T13:46:37;1.70;;;1.60;;
32639;SDS011;19049;52.524;11.468;2022-07-24T13:49:03;1.83;;;1.73;;
32639;SDS011;19049;52.524;11.468;2022-07-24T13:51:39;1.70;;;1.60;;
32639;SDS011;19049;52.524;11.468;2022-07-24T13:54:07;2.10;;;1.50;;
32639;SDS011;19049;52.524;11.468;2022-07-24T13:56:33;2.47;;;1.60;;
32639;SDS011;19049;52.524;11.468;2022-07-24T13:59:06;2.00;;;1.90;;
32639;SDS011;19049;52.524;11.468;2022-07-24T14:01:32;2.00;;;1.90;;
32639;SDS011;19049;52.524;11.468;2022-07-24T14:03:58;1.60;;;1.50;;
32639;SDS011;19049;52.524;11.468;2022-07-24T14:06:23;1.50;;;1.40;;
32639;SDS011;19049;52.524;11.468;2022-07-24T14:08:50;1.50;;;1.40;;
32639;SDS011;19049;52.524;11.468;2022-07-24T14:11:30;1.40;;;1.40;;
32639;SDS011;19049;52.524;11.468;2022-07-24T14:13:58;1.70;;;1.60;;
32639;SDS011;19049;52.524;11.468;2022-07-24T14:16:28;1.73;;;1.63;;
32639;SDS011;19049;52.524;11.468;2022-07-24T14:19:11;2.73;;;2.07;;
32639;SDS011;19049;52.524;11.468;2022-07-24T14:21:39;2.03;;;1.93;;
32639;SDS011;19049;52.524;11.468;2022-07-24T14:24:19;2.10;;;2.00;;
32639;SDS011;19049;52.524;11.468;2022-07-24T14:27:14;1.97;;;1.87;;
32639;SDS011;19049;52.524;11.468;2022-07-24T14:29:42;2.03;;;1.93;;
32639;SDS011;19049;52.524;11.468;2022-07-24T14:32:07;2.07;;;1.90;;
32639;SDS011;19049;52.524;11.468;2022-07-24T14:34:33;1.77;;;1.67;;
32639;SDS011;19049;52.524;11.468;2022-07-24T14:37:08;2.10;;;2.00;;
32639;SDS011;19049;52.524;11.468;2022-07-24T14:42:34;1.67;;;1.57;;
32639;SDS011;19049;52.524;11.468;2022-07-24T14:45:43;1.90;;;1.80;;
32639;SDS011;19049;52.524;11.468;2022-07-24T14:48:17;1.70;;;1.60;;
32639;SDS011;19049;52.524;11.468;2022-07-24T14:50:46;2.17;;;1.97;;
32639;SDS011;19049;52.524;11.468;2022-07-24T14:53:14;2.00;;;1.90;;
32639;SDS011;19049;52.524;11.468;2022-07-24T14:55:42;1.70;;;1.60;;
32639;SDS011;19049;52.524;11.468;2022-07-24T14:58:12;2.37;;;1.97;;
32639;SDS011;19049;52.524;11.468;2022-07-24T15:00:42;3.10;;;1.77;;
32639;SDS011;19049;52.524;11.468;2022-07-24T15:03:21;3.10;;;2.20;;
32639;SDS011;19049;52.524;11.468;2022-07-24T15:05:46;2.20;;;2.00;;
32639;SDS011;19049;52.524;11.468;2022-07-24T15:08:16;2.60;;;2.20;;
32639;SDS011;19049;52.524;11.468;2022-07-24T15:10:52;2.50;;;1.90;;
32639;SDS011;19049;52.524;11.468;2022-07-24T15:13:23;1.93;;;1.83;;
32639;SDS011;19049;52.524;11.468;2022-07-24T15:22:33;1.80;;;1.70;;
32639;SDS011;19049;52.524;11.468;2022-07-24T15:25:24;2.00;;;1.90;;
32639;SDS011;19049;52.524;11.468;2022-07-24T15:28:24;2.17;;;2.00;;
32639;SDS011;19049;52.524;11.468;2022-07-24T15:30:53;1.83;;;1.73;;
32639;SDS011;19049;52.524;11.468;2022-07-24T15:33:44;1.90;;;1.80;;
32639;SDS011;19049;52.524;11.468;2022-07-24T15:36:19;2.00;;;1.90;;
32639;SDS011;19049;52.524;11.468;2022-07-24T15:38:53;2.00;;;1.90;;
32639;SDS011;19049;52.524;11.468;2022-07-24T15:41:19;2.30;;;2.07;;
32639;SDS011;19049;52.524;11.468;2022-07-24T15:43:45;3.20;;;1.50;;
32639;SDS011;19049;52.524;11.468;2022-07-24T15:46:10;2.83;;;1.70;;
32639;SDS011;19049;52.524;11.468;2022-07-24T15:48:36;2.73;;;1.80;;
32639;SDS011;19049;52.524;11.468;2022-07-24T15:51:02;1.77;;;1.67;;
32639;SDS011;19049;52.524;11.468;2022-07-24T15:53:34;2.00;;;1.90;;
32639;SDS011;19049;52.524;11.468;2022-07-24T15:56:00;1.80;;;1.70;;